sensor_id;sensor_type;location;lat;lon;timestamp;P1;durP1;ratioP1;P2;durP2;ratioP2
16878;SDS011;8556;52.218;9.884;2022-09-14T00:00:45;6.17;;;1.93;;
16878;SDS011;8556;52.218;9.884;2022-09-14T00:03:12;3.13;;;1.90;;
16878;SDS011;8556;52.218;9.884;2022-09-14T00:05:41;3.50;;;1.97;;
16878;SDS011;8556;52.218;9.884;2022-09-14T00:08:08;6.87;;;1.90;;
16878;SDS011;8556;52.218;9.884;2022-09-14T00:10:37;5.63;;;2.00;;
16878;SDS011;8556;52.218;9.884;2022-09-14T00:13:05;3.10;;;1.97;;
16878;SDS011;8556;52.218;9.884;2022-09-14T00:15:34;7.40;;;2.03;;
16878;SDS011;8556;52.218;9.884;2022-09-14T00:18:02;4.67;;;2.10;;
16878;SDS011;8556;52.218;9.884;2022-09-14T00:20:29;5.17;;;1.90;;
16878;SDS011;8556;52.218;9.884;2022-09-14T00:22:58;4.77;;;1.90;;
16878;SDS011;8556;52.218;9.884;2022-09-14T00:25:25;5.90;;;2.23;;
16878;SDS011;8556;52.218;9.884;2022-09-14T00:27:52;4.07;;;1.75;;
16878;SDS011;8556;52.218;9.884;2022-09-14T00:30:20;3.80;;;2.10;;
16878;SDS011;8556;52.218;9.884;2022-09-14T00:32:48;6.95;;;2.42;;
16878;SDS011;8556;52.218;9.884;2022-09-14T00:35:15;5.67;;;2.13;;
16878;SDS011;8556;52.218;9.884;2022-09-14T00:37:43;4.55;;;1.80;;
16878;SDS011;8556;52.218;9.884;2022-09-14T00:40:11;6.03;;;2.75;;
16878;SDS011;8556;52.218;9.884;2022-09-14T00:42:38;5.80;;;2.23;;
16878;SDS011;8556;52.218;9.884;2022-09-14T00:45:06;5.33;;;1.93;;
16878;SDS011;8556;52.218;9.884;2022-09-14T00:47:39;3.77;;;1.97;;
16878;SDS011;8556;52.218;9.884;2022-09-14T00:50:07;6.13;;;2.60;;
16878;SDS011;8556;52.218;9.884;2022-09-14T00:52:36;6.53;;;1.87;;
16878;SDS011;8556;52.218;9.884;2022-09-14T00:55:07;7.10;;;2.30;;
16878;SDS011;8556;52.218;9.884;2022-09-14T00:57:41;5.70;;;2.20;;
16878;SDS011;8556;52.218;9.884;2022-09-14T01:00:10;5.53;;;1.80;;
16878;SDS011;8556;52.218;9.884;2022-09-14T01:02:39;8.30;;;2.60;;
16878;SDS011;8556;52.218;9.884;2022-09-14T01:05:08;5.60;;;2.40;;
16878;SDS011;8556;52.218;9.884;2022-09-14T01:10:27;6.73;;;2.47;;
16878;SDS011;8556;52.218;9.884;2022-09-14T01:13:07;7.50;;;2.30;;
16878;SDS011;8556;52.218;9.884;2022-09-14T01:15:44;5.37;;;2.10;;
16878;SDS011;8556;52.218;9.884;2022-09-14T01:18:20;4.03;;;2.07;;
16878;SDS011;8556;52.218;9.884;2022-09-14T01:20:52;4.30;;;1.83;;
16878;SDS011;8556;52.218;9.884;2022-09-14T01:23:25;6.43;;;2.20;;
16878;SDS011;8556;52.218;9.884;2022-09-14T01:26:18;4.60;;;2.30;;
16878;SDS011;8556;52.218;9.884;2022-09-14T01:29:02;6.53;;;2.60;;
16878;SDS011;8556;52.218;9.884;2022-09-14T01:31:35;6.67;;;2.17;;
16878;SDS011;8556;52.218;9.884;2022-09-14T01:34:09;6.23;;;2.50;;
16878;SDS011;8556;52.218;9.884;2022-09-14T01:36:39;4.97;;;2.10;;
16878;SDS011;8556;52.218;9.884;2022-09-14T01:39:12;5.27;;;2.17;;
16878;SDS011;8556;52.218;9.884;2022-09-14T01:41:41;5.50;;;1.93;;
16878;SDS011;8556;52.218;9.884;2022-09-14T01:44:12;4.27;;;2.10;;
16878;SDS011;8556;52.218;9.884;2022-09-14T01:46:44;7.33;;;2.73;;
16878;SDS011;8556;52.218;9.884;2022-09-14T01:49:15;4.37;;;2.10;;
16878;SDS011;8556;52.218;9.884;2022-09-14T01:51:45;5.80;;;2.00;;
16878;SDS011;8556;52.218;9.884;2022-09-14T01:54:14;8.27;;;2.43;;
16878;SDS011;8556;52.218;9.884;2022-09-14T01:56:45;6.63;;;2.10;;
16878;SDS011;8556;52.218;9.884;2022-09-14T01:59:18;6.10;;;2.03;;
16878;SDS011;8556;52.218;9.884;2022-09-14T02:01:48;6.53;;;2.30;;
16878;SDS011;8556;52.218;9.884;2022-09-14T02:04:21;5.10;;;2.10;;
16878;SDS011;8556;52.218;9.884;2022-09-14T02:06:53;4.97;;;2.03;;
16878;SDS011;8556;52.218;9.884;2022-09-14T02:09:21;9.73;;;2.30;;
16878;SDS011;8556;52.218;9.884;2022-09-14T02:11:51;6.03;;;1.90;;
16878;SDS011;8556;52.218;9.884;2022-09-14T02:14:20;6.07;;;2.23;;
16878;SDS011;8556;52.218;9.884;2022-09-14T02:16:47;5.43;;;1.93;;
16878;SDS011;8556;52.218;9.884;2022-09-14T02:19:14;4.63;;;1.97;;
16878;SDS011;8556;52.218;9.884;2022-09-14T02:21:41;5.40;;;2.40;;
16878;SDS011;8556;52.218;9.884;2022-09-14T02:24:08;4.73;;;2.03;;
16878;SDS011;8556;52.218;9.884;2022-09-14T02:26:35;6.03;;;2.20;;
16878;SDS011;8556;52.218;9.884;2022-09-14T02:29:03;4.83;;;2.10;;
16878;SDS011;8556;52.218;9.884;2022-09-14T02:31:35;4.10;;;2.23;;
16878;SDS011;8556;52.218;9.884;2022-09-14T02:34:12;8.03;;;2.30;;
16878;SDS011;8556;52.218;9.884;2022-09-14T02:36:52;10.40;;;2.57;;
16878;SDS011;8556;52.218;9.884;2022-09-14T02:39:26;7.60;;;2.50;;
16878;SDS011;8556;52.218;9.884;2022-09-14T02:42:07;5.20;;;2.10;;
16878;SDS011;8556;52.218;9.884;2022-09-14T02:44:44;8.00;;;2.43;;
16878;SDS011;8556;52.218;9.884;2022-09-14T02:47:21;5.87;;;2.10;;
16878;SDS011;8556;52.218;9.884;2022-09-14T02:49:55;4.17;;;1.77;;
16878;SDS011;8556;52.218;9.884;2022-09-14T02:52:30;9.60;;;2.87;;
16878;SDS011;8556;52.218;9.884;2022-09-14T02:55:01;2.97;;;1.70;;
16878;SDS011;8556;52.218;9.884;2022-09-14T02:57:32;5.63;;;2.07;;
16878;SDS011;8556;52.218;9.884;2022-09-14T03:00:08;8.37;;;2.00;;
16878;SDS011;8556;52.218;9.884;2022-09-14T03:02:36;8.43;;;2.53;;
16878;SDS011;8556;52.218;9.884;2022-09-14T03:05:03;7.70;;;2.33;;
16878;SDS011;8556;52.218;9.884;2022-09-14T03:07:30;4.37;;;1.90;;
16878;SDS011;8556;52.218;9.884;2022-09-14T03:09:57;7.00;;;2.10;;
16878;SDS011;8556;52.218;9.884;2022-09-14T03:12:24;3.90;;;1.80;;
16878;SDS011;8556;52.218;9.884;2022-09-14T03:14:51;5.67;;;1.80;;
16878;SDS011;8556;52.218;9.884;2022-09-14T03:17:18;5.70;;;1.93;;
16878;SDS011;8556;52.218;9.884;2022-09-14T03:19:46;5.27;;;2.53;;
16878;SDS011;8556;52.218;9.884;2022-09-14T03:22:14;4.57;;;2.10;;
16878;SDS011;8556;52.218;9.884;2022-09-14T03:24:40;7.90;;;2.10;;
16878;SDS011;8556;52.218;9.884;2022-09-14T03:27:07;4.57;;;2.03;;
16878;SDS011;8556;52.218;9.884;2022-09-14T03:29:34;7.77;;;2.20;;
16878;SDS011;8556;52.218;9.884;2022-09-14T03:32:01;3.73;;;2.10;;
16878;SDS011;8556;52.218;9.884;2022-09-14T03:34:28;5.73;;;2.33;;
16878;SDS011;8556;52.218;9.884;2022-09-14T03:36:56;8.47;;;3.73;;
16878;SDS011;8556;52.218;9.884;2022-09-14T03:39:23;7.03;;;2.40;;
16878;SDS011;8556;52.218;9.884;2022-09-14T03:41:49;5.63;;;2.10;;
16878;SDS011;8556;52.218;9.884;2022-09-14T03:44:16;7.27;;;2.63;;
16878;SDS011;8556;52.218;9.884;2022-09-14T03:46:43;4.17;;;1.87;;
16878;SDS011;8556;52.218;9.884;2022-09-14T03:49:10;6.40;;;2.03;;
16878;SDS011;8556;52.218;9.884;2022-09-14T03:51:37;4.70;;;2.57;;
16878;SDS011;8556;52.218;9.884;2022-09-14T03:54:05;6.73;;;2.20;;
16878;SDS011;8556;52.218;9.884;2022-09-14T03:56:32;6.20;;;2.33;;
16878;SDS011;8556;52.218;9.884;2022-09-14T03:58:59;4.47;;;2.20;;
16878;SDS011;8556;52.218;9.884;2022-09-14T04:01:26;3.83;;;1.90;;
16878;SDS011;8556;52.218;9.884;2022-09-14T04:03:53;4.17;;;2.50;;
16878;SDS011;8556;52.218;9.884;2022-09-14T04:06:20;2.90;;;2.60;;
16878;SDS011;8556;52.218;9.884;2022-09-14T04:08:47;7.13;;;3.20;;
16878;SDS011;8556;52.218;9.884;2022-09-14T04:11:16;6.10;;;2.07;;
16878;SDS011;8556;52.218;9.884;2022-09-14T04:13:44;6.27;;;1.87;;
16878;SDS011;8556;52.218;9.884;2022-09-14T04:16:12;5.47;;;2.67;;
16878;SDS011;8556;52.218;9.884;2022-09-14T04:18:39;6.23;;;3.07;;
16878;SDS011;8556;52.218;9.884;2022-09-14T04:21:06;3.43;;;2.70;;
16878;SDS011;8556;52.218;9.884;2022-09-14T04:23:35;6.63;;;3.30;;
16878;SDS011;8556;52.218;9.884;2022-09-14T04:26:05;7.43;;;3.53;;
16878;SDS011;8556;52.218;9.884;2022-09-14T04:28:37;6.50;;;4.00;;
16878;SDS011;8556;52.218;9.884;2022-09-14T04:31:05;7.03;;;3.00;;
16878;SDS011;8556;52.218;9.884;2022-09-14T04:33:33;6.90;;;2.67;;
16878;SDS011;8556;52.218;9.884;2022-09-14T04:36:02;2.97;;;2.23;;
16878;SDS011;8556;52.218;9.884;2022-09-14T04:38:31;4.00;;;2.00;;
16878;SDS011;8556;52.218;9.884;2022-09-14T04:40:58;5.13;;;2.60;;
16878;SDS011;8556;52.218;9.884;2022-09-14T04:43:25;7.10;;;3.07;;
16878;SDS011;8556;52.218;9.884;2022-09-14T04:45:59;6.43;;;3.57;;
16878;SDS011;8556;52.218;9.884;2022-09-14T04:48:28;4.47;;;2.90;;
16878;SDS011;8556;52.218;9.884;2022-09-14T04:50:59;6.13;;;2.97;;
16878;SDS011;8556;52.218;9.884;2022-09-14T04:53:27;8.13;;;2.90;;
16878;SDS011;8556;52.218;9.884;2022-09-14T04:55:57;5.80;;;2.63;;
16878;SDS011;8556;52.218;9.884;2022-09-14T04:58:24;5.90;;;2.80;;
16878;SDS011;8556;52.218;9.884;2022-09-14T05:00:52;6.67;;;2.80;;
16878;SDS011;8556;52.218;9.884;2022-09-14T05:03:21;3.97;;;2.90;;
16878;SDS011;8556;52.218;9.884;2022-09-14T05:05:47;4.93;;;2.53;;
16878;SDS011;8556;52.218;9.884;2022-09-14T05:08:14;5.50;;;2.93;;
16878;SDS011;8556;52.218;9.884;2022-09-14T05:10:41;10.07;;;2.87;;
16878;SDS011;8556;52.218;9.884;2022-09-14T05:13:08;4.33;;;2.17;;
16878;SDS011;8556;52.218;9.884;2022-09-14T05:15:35;5.83;;;2.47;;
16878;SDS011;8556;52.218;9.884;2022-09-14T05:18:02;10.07;;;2.83;;
16878;SDS011;8556;52.218;9.884;2022-09-14T05:20:30;6.40;;;3.10;;
16878;SDS011;8556;52.218;9.884;2022-09-14T05:22:57;4.43;;;2.30;;
16878;SDS011;8556;52.218;9.884;2022-09-14T05:25:23;4.20;;;2.70;;
16878;SDS011;8556;52.218;9.884;2022-09-14T05:27:51;5.93;;;3.00;;
16878;SDS011;8556;52.218;9.884;2022-09-14T05:30:18;4.83;;;2.90;;
16878;SDS011;8556;52.218;9.884;2022-09-14T05:32:45;9.77;;;5.23;;
16878;SDS011;8556;52.218;9.884;2022-09-14T05:35:12;7.43;;;3.80;;
16878;SDS011;8556;52.218;9.884;2022-09-14T05:37:40;4.23;;;3.53;;
16878;SDS011;8556;52.218;9.884;2022-09-14T05:40:07;10.10;;;4.17;;
16878;SDS011;8556;52.218;9.884;2022-09-14T05:42:35;5.23;;;4.40;;
16878;SDS011;8556;52.218;9.884;2022-09-14T05:45:03;6.93;;;3.53;;
16878;SDS011;8556;52.218;9.884;2022-09-14T05:47:30;7.53;;;3.10;;
16878;SDS011;8556;52.218;9.884;2022-09-14T05:49:57;5.97;;;2.90;;
16878;SDS011;8556;52.218;9.884;2022-09-14T05:52:24;5.47;;;3.30;;
16878;SDS011;8556;52.218;9.884;2022-09-14T05:54:52;4.97;;;2.50;;
16878;SDS011;8556;52.218;9.884;2022-09-14T05:57:19;4.03;;;2.43;;
16878;SDS011;8556;52.218;9.884;2022-09-14T05:59:45;6.70;;;2.90;;
16878;SDS011;8556;52.218;9.884;2022-09-14T06:02:12;6.23;;;2.97;;
16878;SDS011;8556;52.218;9.884;2022-09-14T06:04:39;3.20;;;2.33;;
16878;SDS011;8556;52.218;9.884;2022-09-14T06:07:06;6.87;;;2.50;;
16878;SDS011;8556;52.218;9.884;2022-09-14T06:09:33;5.50;;;2.50;;
16878;SDS011;8556;52.218;9.884;2022-09-14T06:12:01;7.13;;;2.60;;
16878;SDS011;8556;52.218;9.884;2022-09-14T06:14:28;8.23;;;2.67;;
16878;SDS011;8556;52.218;9.884;2022-09-14T06:16:55;4.03;;;2.50;;
16878;SDS011;8556;52.218;9.884;2022-09-14T06:19:22;6.83;;;2.70;;
16878;SDS011;8556;52.218;9.884;2022-09-14T06:21:50;5.83;;;2.40;;
16878;SDS011;8556;52.218;9.884;2022-09-14T06:24:17;7.40;;;2.80;;
16878;SDS011;8556;52.218;9.884;2022-09-14T06:26:44;7.00;;;2.70;;
16878;SDS011;8556;52.218;9.884;2022-09-14T06:29:12;5.10;;;2.70;;
16878;SDS011;8556;52.218;9.884;2022-09-14T06:31:39;7.33;;;2.67;;
16878;SDS011;8556;52.218;9.884;2022-09-14T06:34:05;10.37;;;3.00;;
16878;SDS011;8556;52.218;9.884;2022-09-14T06:36:32;7.77;;;2.57;;
16878;SDS011;8556;52.218;9.884;2022-09-14T06:38:59;6.60;;;2.70;;
16878;SDS011;8556;52.218;9.884;2022-09-14T06:41:26;3.83;;;2.40;;
16878;SDS011;8556;52.218;9.884;2022-09-14T06:43:55;6.27;;;2.90;;
16878;SDS011;8556;52.218;9.884;2022-09-14T06:46:26;9.93;;;2.70;;
16878;SDS011;8556;52.218;9.884;2022-09-14T06:48:55;5.93;;;2.23;;
16878;SDS011;8556;52.218;9.884;2022-09-14T06:51:24;5.93;;;2.30;;
16878;SDS011;8556;52.218;9.884;2022-09-14T06:53:54;3.67;;;2.10;;
16878;SDS011;8556;52.218;9.884;2022-09-14T06:56:23;6.67;;;2.17;;
16878;SDS011;8556;52.218;9.884;2022-09-14T06:58:50;7.07;;;2.65;;
16878;SDS011;8556;52.218;9.884;2022-09-14T07:01:18;5.47;;;3.00;;
16878;SDS011;8556;52.218;9.884;2022-09-14T07:03:47;7.57;;;2.40;;
16878;SDS011;8556;52.218;9.884;2022-09-14T07:06:18;7.73;;;3.43;;
16878;SDS011;8556;52.218;9.884;2022-09-14T07:08:46;6.53;;;2.90;;
16878;SDS011;8556;52.218;9.884;2022-09-14T07:11:14;5.97;;;2.40;;
16878;SDS011;8556;52.218;9.884;2022-09-14T07:13:42;4.75;;;2.33;;
16878;SDS011;8556;52.218;9.884;2022-09-14T07:16:10;5.25;;;2.30;;
16878;SDS011;8556;52.218;9.884;2022-09-14T07:18:37;6.55;;;2.40;;
16878;SDS011;8556;52.218;9.884;2022-09-14T07:21:06;6.25;;;2.33;;
16878;SDS011;8556;52.218;9.884;2022-09-14T07:23:35;6.13;;;2.40;;
16878;SDS011;8556;52.218;9.884;2022-09-14T07:26:04;5.13;;;2.38;;
16878;SDS011;8556;52.218;9.884;2022-09-14T07:28:32;8.30;;;2.60;;
16878;SDS011;8556;52.218;9.884;2022-09-14T07:31:01;5.47;;;2.65;;
16878;SDS011;8556;52.218;9.884;2022-09-14T07:33:29;3.75;;;2.17;;
16878;SDS011;8556;52.218;9.884;2022-09-14T07:36:03;5.05;;;2.80;;
16878;SDS011;8556;52.218;9.884;2022-09-14T07:38:32;5.63;;;3.33;;
16878;SDS011;8556;52.218;9.884;2022-09-14T07:40:59;5.90;;;2.65;;
16878;SDS011;8556;52.218;9.884;2022-09-14T07:43:26;5.72;;;2.80;;
16878;SDS011;8556;52.218;9.884;2022-09-14T07:45:54;4.65;;;2.28;;
16878;SDS011;8556;52.218;9.884;2022-09-14T07:48:21;7.75;;;2.80;;
16878;SDS011;8556;52.218;9.884;2022-09-14T07:50:57;5.43;;;2.47;;
16878;SDS011;8556;52.218;9.884;2022-09-14T07:53:26;9.70;;;3.53;;
16878;SDS011;8556;52.218;9.884;2022-09-14T07:55:53;10.85;;;4.47;;
16878;SDS011;8556;52.218;9.884;2022-09-14T07:58:19;15.95;;;10.23;;
16878;SDS011;8556;52.218;9.884;2022-09-14T08:00:47;13.88;;;5.60;;
16878;SDS011;8556;52.218;9.884;2022-09-14T08:03:14;9.30;;;4.75;;
16878;SDS011;8556;52.218;9.884;2022-09-14T08:05:40;7.13;;;3.90;;
16878;SDS011;8556;52.218;9.884;2022-09-14T08:08:07;7.75;;;4.07;;
16878;SDS011;8556;52.218;9.884;2022-09-14T08:10:35;12.25;;;5.38;;
16878;SDS011;8556;52.218;9.884;2022-09-14T08:13:02;5.30;;;3.65;;
16878;SDS011;8556;52.218;9.884;2022-09-14T08:15:30;6.75;;;3.90;;
16878;SDS011;8556;52.218;9.884;2022-09-14T08:17:57;4.93;;;3.05;;
16878;SDS011;8556;52.218;9.884;2022-09-14T08:20:24;6.50;;;2.95;;
16878;SDS011;8556;52.218;9.884;2022-09-14T08:22:51;6.03;;;2.85;;
16878;SDS011;8556;52.218;9.884;2022-09-14T08:25:17;6.32;;;2.85;;
16878;SDS011;8556;52.218;9.884;2022-09-14T08:27:46;4.90;;;2.30;;
16878;SDS011;8556;52.218;9.884;2022-09-14T08:30:12;6.32;;;2.83;;
16878;SDS011;8556;52.218;9.884;2022-09-14T08:32:39;6.90;;;2.92;;
16878;SDS011;8556;52.218;9.884;2022-09-14T08:35:07;10.70;;;2.85;;
16878;SDS011;8556;52.218;9.884;2022-09-14T08:37:34;11.18;;;3.53;;
16878;SDS011;8556;52.218;9.884;2022-09-14T08:40:01;9.65;;;2.92;;
16878;SDS011;8556;52.218;9.884;2022-09-14T08:42:28;6.95;;;2.72;;
16878;SDS011;8556;52.218;9.884;2022-09-14T08:44:58;4.70;;;2.10;;
16878;SDS011;8556;52.218;9.884;2022-09-14T08:47:28;6.22;;;2.60;;
16878;SDS011;8556;52.218;9.884;2022-09-14T08:49:59;7.20;;;2.63;;
16878;SDS011;8556;52.218;9.884;2022-09-14T08:52:31;6.57;;;2.25;;
16878;SDS011;8556;52.218;9.884;2022-09-14T08:55:00;8.20;;;2.60;;
16878;SDS011;8556;52.218;9.884;2022-09-14T08:57:38;9.77;;;2.60;;
16878;SDS011;8556;52.218;9.884;2022-09-14T09:00:10;10.02;;;2.78;;
16878;SDS011;8556;52.218;9.884;2022-09-14T09:02:54;4.78;;;2.05;;
16878;SDS011;8556;52.218;9.884;2022-09-14T09:05:50;5.45;;;1.80;;
16878;SDS011;8556;52.218;9.884;2022-09-14T09:08:22;7.25;;;2.13;;
16878;SDS011;8556;52.218;9.884;2022-09-14T09:10:55;4.40;;;1.77;;
16878;SDS011;8556;52.218;9.884;2022-09-14T09:13:27;10.77;;;2.03;;
16878;SDS011;8556;52.218;9.884;2022-09-14T09:15:57;10.27;;;2.25;;
16878;SDS011;8556;52.218;9.884;2022-09-14T09:18:28;11.50;;;2.65;;
16878;SDS011;8556;52.218;9.884;2022-09-14T09:21:02;6.60;;;1.85;;
16878;SDS011;8556;52.218;9.884;2022-09-14T09:23:33;10.82;;;2.65;;
16878;SDS011;8556;52.218;9.884;2022-09-14T09:26:02;8.57;;;1.95;;
16878;SDS011;8556;52.218;9.884;2022-09-14T09:28:31;8.00;;;2.20;;
16878;SDS011;8556;52.218;9.884;2022-09-14T09:31:01;7.10;;;1.70;;
16878;SDS011;8556;52.218;9.884;2022-09-14T09:33:31;2.00;;;1.38;;
16878;SDS011;8556;52.218;9.884;2022-09-14T09:35:58;8.25;;;1.83;;
16878;SDS011;8556;52.218;9.884;2022-09-14T09:38:26;7.03;;;1.33;;
16878;SDS011;8556;52.218;9.884;2022-09-14T09:40:55;7.75;;;1.65;;
16878;SDS011;8556;52.218;9.884;2022-09-14T09:43:24;8.68;;;1.98;;
16878;SDS011;8556;52.218;9.884;2022-09-14T09:45:55;7.82;;;1.40;;
16878;SDS011;8556;52.218;9.884;2022-09-14T09:48:27;6.75;;;1.60;;
16878;SDS011;8556;52.218;9.884;2022-09-14T09:51:01;3.72;;;1.20;;
16878;SDS011;8556;52.218;9.884;2022-09-14T09:53:33;8.02;;;1.40;;
16878;SDS011;8556;52.218;9.884;2022-09-14T09:56:03;7.82;;;1.40;;
16878;SDS011;8556;52.218;9.884;2022-09-14T09:58:32;6.55;;;1.38;;
16878;SDS011;8556;52.218;9.884;2022-09-14T10:01:02;6.57;;;1.52;;
16878;SDS011;8556;52.218;9.884;2022-09-14T10:03:34;3.35;;;1.23;;
16878;SDS011;8556;52.218;9.884;2022-09-14T10:06:06;6.00;;;1.10;;
16878;SDS011;8556;52.218;9.884;2022-09-14T10:08:41;2.00;;;1.00;;
16878;SDS011;8556;52.218;9.884;2022-09-14T10:11:26;6.30;;;1.80;;
16878;SDS011;8556;52.218;9.884;2022-09-14T10:13:56;3.35;;;1.50;;
16878;SDS011;8556;52.218;9.884;2022-09-14T10:16:24;5.95;;;1.50;;
16878;SDS011;8556;52.218;9.884;2022-09-14T10:18:57;3.40;;;1.40;;
16878;SDS011;8556;52.218;9.884;2022-09-14T10:21:26;6.00;;;1.27;;
16878;SDS011;8556;52.218;9.884;2022-09-14T10:24:03;7.13;;;1.67;;
16878;SDS011;8556;52.218;9.884;2022-09-14T10:26:35;5.43;;;1.60;;
16878;SDS011;8556;52.218;9.884;2022-09-14T10:29:18;7.38;;;1.60;;
16878;SDS011;8556;52.218;9.884;2022-09-14T10:32:01;4.60;;;1.35;;
16878;SDS011;8556;52.218;9.884;2022-09-14T10:34:33;7.65;;;1.42;;
16878;SDS011;8556;52.218;9.884;2022-09-14T10:37:04;7.65;;;1.70;;
16878;SDS011;8556;52.218;9.884;2022-09-14T10:39:40;3.60;;;1.27;;
16878;SDS011;8556;52.218;9.884;2022-09-14T10:42:13;7.45;;;1.25;;
16878;SDS011;8556;52.218;9.884;2022-09-14T10:44:55;5.10;;;1.45;;
16878;SDS011;8556;52.218;9.884;2022-09-14T10:47:39;8.27;;;1.50;;
16878;SDS011;8556;52.218;9.884;2022-09-14T10:50:40;5.03;;;1.20;;
16878;SDS011;8556;52.218;9.884;2022-09-14T10:53:17;3.60;;;1.20;;
16878;SDS011;8556;52.218;9.884;2022-09-14T10:55:56;4.05;;;1.50;;
16878;SDS011;8556;52.218;9.884;2022-09-14T10:58:32;3.95;;;1.33;;
16878;SDS011;8556;52.218;9.884;2022-09-14T11:01:08;4.80;;;1.25;;
16878;SDS011;8556;52.218;9.884;2022-09-14T11:03:49;5.25;;;1.50;;
16878;SDS011;8556;52.218;9.884;2022-09-14T11:06:28;3.30;;;1.02;;
16878;SDS011;8556;52.218;9.884;2022-09-14T11:09:05;4.63;;;1.13;;
16878;SDS011;8556;52.218;9.884;2022-09-14T11:11:41;5.20;;;1.40;;
16878;SDS011;8556;52.218;9.884;2022-09-14T11:14:22;7.75;;;1.40;;
16878;SDS011;8556;52.218;9.884;2022-09-14T11:17:06;4.05;;;1.67;;
16878;SDS011;8556;52.218;9.884;2022-09-14T11:19:47;4.45;;;1.42;;
16878;SDS011;8556;52.218;9.884;2022-09-14T11:22:27;4.40;;;1.20;;
16878;SDS011;8556;52.218;9.884;2022-09-14T11:25:00;4.80;;;1.13;;
16878;SDS011;8556;52.218;9.884;2022-09-14T11:27:33;5.07;;;1.23;;
16878;SDS011;8556;52.218;9.884;2022-09-14T11:30:08;7.40;;;1.40;;
16878;SDS011;8556;52.218;9.884;2022-09-14T11:32:39;4.13;;;1.33;;
16878;SDS011;8556;52.218;9.884;2022-09-14T11:35:11;3.53;;;1.17;;
16878;SDS011;8556;52.218;9.884;2022-09-14T11:37:45;4.10;;;1.15;;
16878;SDS011;8556;52.218;9.884;2022-09-14T11:40:17;5.82;;;1.40;;
16878;SDS011;8556;52.218;9.884;2022-09-14T11:42:49;1.98;;;1.20;;
16878;SDS011;8556;52.218;9.884;2022-09-14T11:45:22;3.95;;;1.15;;
16878;SDS011;8556;52.218;9.884;2022-09-14T11:47:55;2.00;;;0.75;;
16878;SDS011;8556;52.218;9.884;2022-09-14T11:50:31;4.72;;;1.25;;
16878;SDS011;8556;52.218;9.884;2022-09-14T11:53:08;5.72;;;1.30;;
16878;SDS011;8556;52.218;9.884;2022-09-14T11:55:36;4.35;;;1.23;;
16878;SDS011;8556;52.218;9.884;2022-09-14T11:58:06;3.78;;;1.08;;
16878;SDS011;8556;52.218;9.884;2022-09-14T12:00:44;7.32;;;1.38;;
16878;SDS011;8556;52.218;9.884;2022-09-14T12:20:47;6.03;;;1.40;;
16878;SDS011;8556;52.218;9.884;2022-09-14T12:23:21;4.35;;;1.20;;
16878;SDS011;8556;52.218;9.884;2022-09-14T12:25:56;3.83;;;1.08;;
16878;SDS011;8556;52.218;9.884;2022-09-14T12:28:37;4.85;;;1.27;;
16878;SDS011;8556;52.218;9.884;2022-09-14T12:31:12;3.03;;;1.05;;
16878;SDS011;8556;52.218;9.884;2022-09-14T12:52:08;6.68;;;1.20;;
16878;SDS011;8556;52.218;9.884;2022-09-14T12:54:48;2.75;;;1.15;;
16878;SDS011;8556;52.218;9.884;2022-09-14T12:57:29;3.85;;;1.13;;
16878;SDS011;8556;52.218;9.884;2022-09-14T13:00:09;7.45;;;1.10;;
16878;SDS011;8556;52.218;9.884;2022-09-14T13:02:44;3.13;;;1.30;;
16878;SDS011;8556;52.218;9.884;2022-09-14T13:05:40;7.30;;;1.80;;
16878;SDS011;8556;52.218;9.884;2022-09-14T13:08:10;4.55;;;1.13;;
16878;SDS011;8556;52.218;9.884;2022-09-14T13:10:44;4.28;;;0.93;;
16878;SDS011;8556;52.218;9.884;2022-09-14T13:13:13;4.25;;;1.02;;
16878;SDS011;8556;52.218;9.884;2022-09-14T13:15:47;3.35;;;1.08;;
16878;SDS011;8556;52.218;9.884;2022-09-14T13:18:25;1.85;;;0.95;;
16878;SDS011;8556;52.218;9.884;2022-09-14T13:20:58;3.80;;;1.20;;
16878;SDS011;8556;52.218;9.884;2022-09-14T13:23:27;6.25;;;1.30;;
16878;SDS011;8556;52.218;9.884;2022-09-14T13:25:57;6.97;;;1.38;;
16878;SDS011;8556;52.218;9.884;2022-09-14T13:28:25;4.57;;;1.10;;
16878;SDS011;8556;52.218;9.884;2022-09-14T13:30:56;4.22;;;1.17;;
16878;SDS011;8556;52.218;9.884;2022-09-14T13:33:26;5.20;;;1.35;;
16878;SDS011;8556;52.218;9.884;2022-09-14T13:35:55;4.95;;;1.50;;
16878;SDS011;8556;52.218;9.884;2022-09-14T13:38:24;6.55;;;1.42;;
16878;SDS011;8556;52.218;9.884;2022-09-14T13:40:55;6.65;;;1.55;;
16878;SDS011;8556;52.218;9.884;2022-09-14T13:43:36;3.75;;;1.38;;
16878;SDS011;8556;52.218;9.884;2022-09-14T13:46:05;3.13;;;1.23;;
16878;SDS011;8556;52.218;9.884;2022-09-14T13:48:34;2.90;;;0.90;;
16878;SDS011;8556;52.218;9.884;2022-09-14T13:51:04;3.55;;;1.17;;
16878;SDS011;8556;52.218;9.884;2022-09-14T13:53:35;4.20;;;1.27;;
16878;SDS011;8556;52.218;9.884;2022-09-14T13:56:14;5.40;;;1.27;;
16878;SDS011;8556;52.218;9.884;2022-09-14T13:58:42;5.15;;;1.48;;
16878;SDS011;8556;52.218;9.884;2022-09-14T14:01:09;3.75;;;1.20;;
16878;SDS011;8556;52.218;9.884;2022-09-14T14:03:38;5.57;;;1.38;;
16878;SDS011;8556;52.218;9.884;2022-09-14T14:06:23;5.22;;;1.50;;
16878;SDS011;8556;52.218;9.884;2022-09-14T14:08:53;4.68;;;1.17;;
16878;SDS011;8556;52.218;9.884;2022-09-14T14:11:27;3.50;;;1.05;;
16878;SDS011;8556;52.218;9.884;2022-09-14T14:14:09;4.60;;;1.10;;
16878;SDS011;8556;52.218;9.884;2022-09-14T14:16:37;4.22;;;0.98;;
16878;SDS011;8556;52.218;9.884;2022-09-14T14:19:23;3.65;;;1.17;;
16878;SDS011;8556;52.218;9.884;2022-09-14T14:24:37;4.32;;;1.25;;
16878;SDS011;8556;52.218;9.884;2022-09-14T14:27:04;3.17;;;1.00;;
16878;SDS011;8556;52.218;9.884;2022-09-14T14:29:30;2.95;;;0.90;;
16878;SDS011;8556;52.218;9.884;2022-09-14T14:31:58;4.80;;;1.35;;
16878;SDS011;8556;52.218;9.884;2022-09-14T14:34:26;2.88;;;1.20;;
16878;SDS011;8556;52.218;9.884;2022-09-14T14:36:54;4.45;;;1.20;;
16878;SDS011;8556;52.218;9.884;2022-09-14T14:39:22;9.48;;;4.50;;
16878;SDS011;8556;52.218;9.884;2022-09-14T14:41:50;5.25;;;1.55;;
16878;SDS011;8556;52.218;9.884;2022-09-14T14:44:18;6.00;;;1.00;;
16878;SDS011;8556;52.218;9.884;2022-09-14T14:46:47;3.38;;;1.98;;
16878;SDS011;8556;52.218;9.884;2022-09-14T14:49:15;4.00;;;1.40;;
16878;SDS011;8556;52.218;9.884;2022-09-14T14:51:45;5.82;;;1.42;;
16878;SDS011;8556;52.218;9.884;2022-09-14T14:54:12;8.38;;;1.83;;
16878;SDS011;8556;52.218;9.884;2022-09-14T14:56:40;7.13;;;1.20;;
16878;SDS011;8556;52.218;9.884;2022-09-14T14:59:14;3.70;;;0.90;;
16878;SDS011;8556;52.218;9.884;2022-09-14T15:01:49;2.75;;;1.15;;
16878;SDS011;8556;52.218;9.884;2022-09-14T15:04:18;5.20;;;1.05;;
16878;SDS011;8556;52.218;9.884;2022-09-14T15:06:47;2.05;;;0.98;;
16878;SDS011;8556;52.218;9.884;2022-09-14T15:09:15;4.45;;;1.73;;
16878;SDS011;8556;52.218;9.884;2022-09-14T15:11:44;6.88;;;1.77;;
16878;SDS011;8556;52.218;9.884;2022-09-14T15:14:11;4.63;;;1.17;;
16878;SDS011;8556;52.218;9.884;2022-09-14T15:16:39;3.47;;;1.25;;
16878;SDS011;8556;52.218;9.884;2022-09-14T15:19:07;4.78;;;1.35;;
16878;SDS011;8556;52.218;9.884;2022-09-14T15:21:34;3.42;;;1.02;;
16878;SDS011;8556;52.218;9.884;2022-09-14T15:24:03;5.40;;;1.08;;
16878;SDS011;8556;52.218;9.884;2022-09-14T15:26:30;3.67;;;1.35;;
16878;SDS011;8556;52.218;9.884;2022-09-14T15:28:58;4.70;;;1.42;;
16878;SDS011;8556;52.218;9.884;2022-09-14T15:31:25;5.78;;;1.40;;
16878;SDS011;8556;52.218;9.884;2022-09-14T15:33:52;5.25;;;1.25;;
16878;SDS011;8556;52.218;9.884;2022-09-14T15:36:38;4.63;;;1.60;;
16878;SDS011;8556;52.218;9.884;2022-09-14T15:39:09;2.92;;;1.30;;
16878;SDS011;8556;52.218;9.884;2022-09-14T15:41:37;6.05;;;1.38;;
16878;SDS011;8556;52.218;9.884;2022-09-14T15:44:04;4.35;;;1.20;;
16878;SDS011;8556;52.218;9.884;2022-09-14T15:46:31;4.72;;;1.40;;
16878;SDS011;8556;52.218;9.884;2022-09-14T15:48:59;4.95;;;1.63;;
16878;SDS011;8556;52.218;9.884;2022-09-14T15:51:30;5.93;;;1.63;;
16878;SDS011;8556;52.218;9.884;2022-09-14T15:53:57;6.90;;;1.25;;
16878;SDS011;8556;52.218;9.884;2022-09-14T15:56:26;2.80;;;1.10;;
16878;SDS011;8556;52.218;9.884;2022-09-14T15:58:55;6.05;;;1.20;;
16878;SDS011;8556;52.218;9.884;2022-09-14T16:01:22;3.85;;;1.10;;